Time;durP1;ratioP1;P1;durP2;ratioP2;P2;SDS_P1;SDS_P2;PMS_P1;PMS_P2;Temp;Humidity;BMP_temperature;BMP_pressure;BME280_temperature;BME280_humidity;BME280_pressure;Samples;Min_cycle;Max_cycle;Signal;HPM_P1;HPM_P2
2024/02/04 00:02:02;;;;;;;4.25;1.70;;;;;;;10.05;100.00;101683.31;4996203;28;20029;-91
2024/02/04 00:04:28;;;;;;;8.95;2.83;;;;;;;10.00;100.00;101680.88;5014122;28;20026;-91
2024/02/04 00:06:53;;;;;;;5.68;1.63;;;;;;;10.01;100.00;101690.31;5011964;28;20041;-91
2024/02/04 00:09:18;;;;;;;9.57;2.20;;;;;;;10.03;100.00;101698.00;5014024;28;20026;-91
2024/02/04 00:11:44;;;;;;;6.70;2.15;;;;;;;10.07;100.00;101696.97;5014185;28;20052;-92
2024/02/04 00:14:10;;;;;;;6.80;2.55;;;;;;;10.07;100.00;101691.81;5013766;28;20092;-90
2024/02/04 00:16:35;;;;;;;8.85;2.83;;;;;;;9.97;100.00;101703.34;4995854;28;20116;-90
2024/02/04 00:19:00;;;;;;;10.20;2.50;;;;;;;10.12;100.00;101704.56;5013442;28;20026;-92
2024/02/04 00:21:26;;;;;;;7.78;2.90;;;;;;;10.10;100.00;101704.63;5012893;28;20041;-91
2024/02/04 00:23:51;;;;;;;8.98;3.08;;;;;;;10.05;100.00;101711.69;5014053;28;20428;-91
2024/02/04 00:26:17;;;;;;;13.95;3.70;;;;;;;9.84;100.00;101715.84;5013666;28;20022;-90
2024/02/04 00:28:43;;;;;;;11.60;4.32;;;;;;;9.91;100.00;101709.56;5013522;28;20403;-92
2024/02/04 00:31:08;;;;;;;12.13;3.42;;;;;;;10.00;100.00;101711.84;4995385;28;20061;-91
2024/02/04 00:33:34;;;;;;;7.15;3.20;;;;;;;9.94;100.00;101696.56;5013522;28;20032;-91
2024/02/04 00:35:59;;;;;;;10.15;2.83;;;;;;;10.01;100.00;101686.88;4994442;28;20040;-91
2024/02/04 00:38:24;;;;;;;9.57;3.63;;;;;;;10.03;100.00;101701.41;5013440;28;20025;-91
2024/02/04 00:40:52;;;;;;;8.63;3.10;;;;;;;10.02;100.00;101706.59;5013427;28;20545;-90
2024/02/04 00:43:17;;;;;;;8.52;2.50;;;;;;;10.05;100.00;101694.47;5013084;28;20499;-91
2024/02/04 00:45:43;;;;;;;7.25;2.03;;;;;;;10.04;100.00;101686.78;5012965;28;20062;-91
2024/02/04 00:48:08;;;;;;;6.90;2.22;;;;;;;10.14;100.00;101680.38;5013110;28;20018;-91
2024/02/04 00:50:33;;;;;;;6.93;1.92;;;;;;;10.08;100.00;101691.78;5012506;28;20101;-91
2024/02/04 00:52:59;;;;;;;3.20;1.88;;;;;;;10.00;100.00;101696.38;5013103;28;20463;-91
2024/02/04 00:55:24;;;;;;;9.05;2.50;;;;;;;10.04;100.00;101687.59;5012882;28;20434;-91
2024/02/04 00:57:49;;;;;;;11.35;2.50;;;;;;;10.14;100.00;101682.97;5013102;28;20034;-90
2024/02/04 01:00:15;;;;;;;9.65;2.70;;;;;;;10.08;100.00;101688.34;5013165;28;20034;-92
2024/02/04 01:02:41;;;;;;;11.77;2.28;;;;;;;10.11;100.00;101675.34;5012842;28;20038;-91
2024/02/04 01:05:07;;;;;;;6.13;1.98;;;;;;;10.13;100.00;101668.41;5012124;28;20499;-91
2024/02/04 01:07:32;;;;;;;7.47;1.60;;;;;;;10.15;100.00;101666.59;5012524;28;20026;-91
2024/02/04 01:09:58;;;;;;;5.25;1.88;;;;;;;10.17;100.00;101661.38;4994735;28;20502;-91
2024/02/04 01:12:23;;;;;;;4.55;1.60;;;;;;;10.19;100.00;101649.25;5012757;28;20026;-92
2024/02/04 01:14:49;;;;;;;6.78;3.78;;;;;;;10.20;100.00;101651.78;4994706;28;20535;-90
2024/02/04 01:17:14;;;;;;;10.65;2.13;;;;;;;10.17;100.00;101641.59;5012565;28;20021;-90
2024/02/04 01:19:39;;;;;;;6.20;2.00;;;;;;;10.11;100.00;101646.97;5010906;28;20030;-90
2024/02/04 01:22:05;;;;;;;6.95;2.50;;;;;;;10.07;100.00;101633.34;5011078;28;20022;-91
2024/02/04 01:24:31;;;;;;;6.00;1.90;;;;;;;10.12;100.00;101634.91;5013014;28;20065;-91
2024/02/04 01:26:56;;;;;;;6.78;1.88;;;;;;;10.09;100.00;101628.13;5012742;28;20105;-91
2024/02/04 01:29:22;;;;;;;8.07;1.73;;;;;;;10.06;100.00;101644.53;5012681;28;20030;-90
2024/02/04 01:31:47;;;;;;;10.35;2.60;;;;;;;9.99;100.00;101642.25;5012505;28;20032;-90
2024/02/04 01:34:13;;;;;;;8.65;2.42;;;;;;;9.96;100.00;101640.63;5011450;28;20052;-90
2024/02/04 01:36:38;;;;;;;9.02;2.08;;;;;;;9.93;100.00;101643.31;5012162;28;20030;-90
2024/02/04 01:39:04;;;;;;;6.63;2.20;;;;;;;9.97;100.00;101644.03;4994707;28;20102;-90
2024/02/04 01:41:30;;;;;;;8.27;2.22;;;;;;;9.96;100.00;101642.38;5012549;28;20376;-91
2024/02/04 01:43:55;;;;;;;9.65;2.60;;;;;;;10.01;100.00;101641.28;5012408;28;20026;-90
2024/02/04 01:46:22;;;;;;;9.45;2.95;;;;;;;10.08;100.00;101634.19;4994894;28;20033;-91
2024/02/04 01:48:47;;;;;;;9.18;2.45;;;;;;;10.01;100.00;101635.31;5012291;28;20495;-91
2024/02/04 01:51:17;;;;;;;8.45;3.13;;;;;;;10.10;100.00;101632.41;5011745;28;20029;-90
2024/02/04 01:53:44;;;;;;;6.47;2.33;;;;;;;10.06;100.00;101629.06;5012106;28;20026;-90
2024/02/04 01:56:11;;;;;;;5.50;2.58;;;;;;;10.15;100.00;101633.06;4994511;28;20055;-90
2024/02/04 01:58:36;;;;;;;13.00;2.60;;;;;;;10.08;100.00;101626.44;5012261;28;20464;-91
2024/02/04 02:01:02;;;;;;;8.05;2.05;;;;;;;10.01;100.00;101620.66;5010467;28;20045;-91
2024/02/04 02:03:29;;;;;;;10.57;2.70;;;;;;;10.16;100.00;101624.41;4994285;28;20030;-92
2024/02/04 02:05:55;;;;;;;11.07;3.03;;;;;;;10.07;100.00;101629.91;5012204;28;20033;-92
2024/02/04 02:08:21;;;;;;;5.07;1.80;;;;;;;10.12;100.00;101622.88;5011744;28;20022;-91
2024/02/04 02:10:48;;;;;;;6.53;2.45;;;;;;;10.04;100.00;101624.88;4994471;28;20120;-90
2024/02/04 02:13:22;;;;;;;7.07;2.13;;;;;;;10.15;100.00;101643.38;5012208;28;20053;-90
2024/02/04 02:16:01;;;;;;;5.47;1.80;;;;;;;10.12;100.00;101628.03;5010893;28;20116;-90
2024/02/04 02:18:40;;;;;;;7.50;2.33;;;;;;;10.11;100.00;101630.66;5011964;28;20026;-91
2024/02/04 02:21:23;;;;;;;7.47;2.70;;;;;;;10.16;100.00;101628.75;5012991;28;20060;-93
2024/02/04 02:24:04;;;;;;;5.85;1.70;;;;;;;10.11;100.00;101633.22;5014829;28;20026;-91
2024/02/04 02:26:32;;;;;;;5.63;1.90;;;;;;;10.03;100.00;101623.19;5016059;28;20100;-91
2024/02/04 02:28:57;;;;;;;6.35;1.77;;;;;;;10.00;100.00;101619.00;5014918;28;20259;-90
2024/02/04 02:31:23;;;;;;;5.30;2.17;;;;;;;10.00;100.00;101631.06;5015076;28;20022;-91
2024/02/04 02:33:48;;;;;;;7.43;1.77;;;;;;;10.01;100.00;101617.25;5015826;28;20490;-91
2024/02/04 02:36:21;;;;;;;10.35;2.80;;;;;;;10.07;100.00;101624.75;5016010;28;20103;-90
2024/02/04 02:38:58;;;;;;;5.68;1.45;;;;;;;9.97;100.00;101628.56;5015870;28;20479;-91
2024/02/04 02:41:29;;;;;;;5.75;1.50;;;;;;;10.02;100.00;101627.53;5015722;28;20041;-90
2024/02/04 02:43:56;;;;;;;8.77;1.30;;;;;;;10.07;100.00;101624.75;5015778;28;20022;-91
2024/02/04 02:46:22;;;;;;;4.53;1.20;;;;;;;10.04;100.00;101636.00;5014717;28;20030;-90
2024/02/04 02:48:48;;;;;;;6.75;1.30;;;;;;;10.02;100.00;101639.56;5015422;28;20033;-92
2024/02/04 02:51:13;;;;;;;5.07;1.52;;;;;;;10.07;100.00;101629.91;4997976;28;20371;-91
2024/02/04 02:53:39;;;;;;;2.47;0.90;;;;;;;10.09;100.00;101630.69;5015514;28;20034;-91
2024/02/04 02:56:05;;;;;;;2.22;0.90;;;;;;;10.06;100.00;101634.22;5015485;28;20395;-92
2024/02/04 02:58:31;;;;;;;3.90;1.25;;;;;;;10.02;100.00;101636.97;5014796;28;20425;-91
2024/02/04 03:00:56;;;;;;;4.63;1.25;;;;;;;10.04;100.00;101646.34;5012594;28;20033;-93
2024/02/04 03:03:21;;;;;;;4.10;1.20;;;;;;;10.04;100.00;101640.34;4998238;28;20041;-93
2024/02/04 03:05:47;;;;;;;5.22;1.10;;;;;;;9.98;100.00;101627.69;4997929;28;20537;-93
2024/02/04 03:08:12;;;;;;;5.07;1.00;;;;;;;10.04;100.00;101620.53;5015390;28;20037;-92
2024/02/04 03:10:37;;;;;;;4.10;1.10;;;;;;;10.03;100.00;101626.59;4997559;28;20117;-92
2024/02/04 03:13:03;;;;;;;1.67;0.80;;;;;;;10.08;100.00;101623.88;5015526;28;20065;-92
2024/02/04 03:15:28;;;;;;;3.10;0.98;;;;;;;10.08;100.00;101623.88;5014285;28;20030;-92
2024/02/04 03:17:54;;;;;;;2.33;1.10;;;;;;;10.13;100.00;101621.97;5015126;28;20383;-93
2024/02/04 03:20:19;;;;;;;2.50;0.90;;;;;;;10.13;100.00;101623.69;5015254;28;20105;-93
2024/02/04 03:22:46;;;;;;;4.45;0.80;;;;;;;10.04;100.00;101609.38;5014956;28;20021;-94
2024/02/04 03:25:11;;;;;;;2.08;1.00;;;;;;;10.03;100.00;101605.13;4997618;28;20026;-93
2024/02/04 03:27:37;;;;;;;1.33;0.80;;;;;;;10.10;100.00;101603.19;5015282;28;20079;-93
2024/02/04 03:30:02;;;;;;;1.60;0.73;;;;;;;10.09;100.00;101602.31;4996632;28;20117;-92
2024/02/04 03:32:33;;;;;;;3.20;0.70;;;;;;;10.00;100.00;101602.69;4995938;28;20077;-93
2024/02/04 03:34:59;;;;;;;2.47;0.52;;;;;;;10.08;100.00;101600.66;4997461;28;20022;-93
2024/02/04 03:37:24;;;;;;;2.88;0.65;;;;;;;10.03;100.00;101598.22;5014821;28;20026;-91
2024/02/04 03:39:49;;;;;;;1.52;0.75;;;;;;;10.07;100.00;101594.66;5014839;28;20053;-92
2024/02/04 03:42:15;;;;;;;1.92;0.75;;;;;;;10.12;100.00;101593.63;5014511;28;20033;-92
2024/02/04 03:44:40;;;;;;;5.18;0.75;;;;;;;10.15;100.00;101585.78;5012450;28;20026;-92
2024/02/04 03:47:06;;;;;;;2.53;0.80;;;;;;;10.17;100.00;101574.50;5014063;28;20041;-93
2024/02/04 03:49:31;;;;;;;2.40;0.85;;;;;;;10.07;100.00;101588.63;5014609;28;20033;-93
2024/02/04 03:51:56;;;;;;;4.78;0.90;;;;;;;10.11;100.00;101574.72;5013745;28;20026;-92
2024/02/04 03:54:22;;;;;;;2.00;0.70;;;;;;;10.13;100.00;101575.53;4995360;28;20034;-93
2024/02/04 03:56:47;;;;;;;10.35;1.13;;;;;;;10.15;100.00;101576.31;5014030;28;20030;-92
2024/02/04 03:59:12;;;;;;;3.67;0.77;;;;;;;10.17;100.00;101560.75;5011776;28;20030;-92
2024/02/04 04:01:38;;;;;;;2.80;0.70;;;;;;;10.10;100.00;101567.06;5014262;28;20467;-93
2024/02/04 04:04:03;;;;;;;1.60;0.60;;;;;;;10.14;100.00;101569.44;5012877;28;20018;-91
2024/02/04 04:06:29;;;;;;;3.88;0.85;;;;;;;10.16;100.00;101562.50;5013088;28;20109;-92
2024/02/04 04:08:54;;;;;;;3.30;0.70;;;;;;;10.19;100.00;101570.16;5014226;28;20076;-93
2024/02/04 04:11:20;;;;;;;2.95;0.60;;;;;;;10.18;100.00;101563.28;5013016;28;20018;-93
2024/02/04 04:13:45;;;;;;;2.65;0.70;;;;;;;10.22;100.00;101557.13;5013887;28;20108;-93
2024/02/04 04:16:10;;;;;;;3.60;0.77;;;;;;;10.15;100.00;101557.41;5013700;28;20030;-92
2024/02/04 04:18:36;;;;;;;2.55;0.70;;;;;;;10.19;100.00;101552.09;5013716;28;20026;-91
2024/02/04 04:21:01;;;;;;;7.40;1.38;;;;;;;10.18;100.00;101550.38;5013062;28;20037;-93
2024/02/04 04:23:26;;;;;;;3.17;1.67;;;;;;;10.11;100.00;101548.94;5013908;28;20069;-92
2024/02/04 04:25:52;;;;;;;5.95;1.00;;;;;;;10.20;100.00;101548.59;5013908;28;20057;-92
2024/02/04 04:28:17;;;;;;;5.03;0.70;;;;;;;10.12;100.00;101552.34;5013492;28;20551;-91
2024/02/04 04:30:42;;;;;;;2.83;0.80;;;;;;;10.26;100.00;101537.19;5013556;28;20563;-91
2024/02/04 04:33:08;;;;;;;6.90;0.88;;;;;;;10.30;100.00;101545.69;5013633;28;20026;-91
2024/02/04 04:35:34;;;;;;;3.15;0.93;;;;;;;10.19;100.00;101526.28;5012081;28;20116;-92
2024/02/04 04:38:00;;;;;;;3.15;0.70;;;;;;;10.34;100.00;101531.75;5012119;28;20372;-92
2024/02/04 04:40:25;;;;;;;10.38;1.10;;;;;;;10.22;100.00;101533.06;5013184;28;20463;-92
2024/02/04 04:42:51;;;;;;;4.43;1.58;;;;;;;10.30;100.00;101527.63;4996019;28;20077;-92
2024/02/04 04:45:16;;;;;;;4.68;0.95;;;;;;;10.23;100.00;101527.81;5012504;28;20040;-92
2024/02/04 04:47:41;;;;;;;7.63;1.48;;;;;;;10.26;100.00;101535.44;5013589;28;20037;-91
2024/02/04 04:50:07;;;;;;;2.80;0.63;;;;;;;10.23;100.00;101538.16;5012444;28;20436;-91
2024/02/04 04:52:33;;;;;;;6.13;1.02;;;;;;;10.28;100.00;101515.63;5013251;28;20076;-93
2024/02/04 04:54:58;;;;;;;4.90;0.57;;;;;;;10.26;100.00;101512.22;5012996;28;20101;-92
2024/02/04 04:57:23;;;;;;;4.90;0.90;;;;;;;10.25;100.00;101515.72;5013085;28;20018;-92
2024/02/04 04:59:49;;;;;;;1.45;0.50;;;;;;;10.30;100.00;101522.47;5013236;28;20110;-92
2024/02/04 05:02:14;;;;;;;3.33;1.00;;;;;;;10.31;100.00;101521.56;5013435;28;20021;-91
2024/02/04 05:04:44;;;;;;;4.88;1.38;;;;;;;10.22;100.00;101536.47;5012367;28;20094;-92
2024/02/04 05:07:10;;;;;;;7.28;0.85;;;;;;;10.14;100.00;101512.69;5012964;28;20048;-91
2024/02/04 05:09:35;;;;;;;5.22;1.00;;;;;;;10.19;100.00;101505.66;5013146;28;20057;-92
2024/02/04 05:12:02;;;;;;;4.05;0.90;;;;;;;10.24;100.00;101516.63;5012865;28;20131;-93
2024/02/04 05:14:27;;;;;;;3.53;1.05;;;;;;;10.23;100.00;101516.66;5012782;28;20104;-92
2024/02/04 05:16:53;;;;;;;4.47;0.75;;;;;;;10.22;100.00;101521.00;5012966;28;20480;-93
2024/02/04 05:19:18;;;;;;;4.47;0.70;;;;;;;10.19;100.00;101540.91;5012109;28;20416;-92
2024/02/04 05:21:43;;;;;;;1.70;0.60;;;;;;;10.22;100.00;101536.47;4995246;28;20026;-92
2024/02/04 05:24:09;;;;;;;4.40;0.88;;;;;;;10.18;100.00;101545.22;4995412;28;20022;-93
2024/02/04 05:26:34;;;;;;;4.00;1.00;;;;;;;10.16;100.00;101536.69;5012611;28;20112;-92
2024/02/04 05:28:59;;;;;;;4.60;1.30;;;;;;;10.18;100.00;101546.97;5012843;28;20038;-92
2024/02/04 05:31:25;;;;;;;4.97;1.35;;;;;;;10.15;100.00;101547.94;5012828;28;20091;-93
2024/02/04 05:33:52;;;;;;;5.28;1.98;;;;;;;10.17;100.00;101564.19;5010151;28;20033;-91
2024/02/04 05:36:17;;;;;;;5.57;1.00;;;;;;;10.21;100.00;101533.94;4994805;28;20037;-92
2024/02/04 05:38:45;;;;;;;3.60;0.93;;;;;;;10.25;100.00;101532.94;4994956;28;20034;-92
2024/02/04 05:41:10;;;;;;;2.95;1.20;;;;;;;10.25;100.00;101545.84;5012733;28;20033;-92
2024/02/04 05:43:35;;;;;;;6.45;0.95;;;;;;;10.23;100.00;101507.19;4994845;28;20025;-93
2024/02/04 05:46:00;;;;;;;7.75;1.25;;;;;;;10.20;100.00;101517.63;5012471;28;20110;-92
2024/02/04 05:48:26;;;;;;;4.82;0.80;;;;;;;10.23;100.00;101512.34;5012228;28;20491;-91
2024/02/04 05:50:51;;;;;;;2.42;0.82;;;;;;;10.20;100.00;101506.47;5011401;28;20487;-92
2024/02/04 05:53:17;;;;;;;5.75;1.27;;;;;;;10.17;100.00;101497.13;5012072;28;20030;-93
2024/02/04 05:55:42;;;;;;;6.55;1.48;;;;;;;10.16;100.00;101499.75;5012032;28;20025;-93
2024/02/04 05:58:07;;;;;;;5.38;1.25;;;;;;;10.18;100.00;101509.09;5012038;28;20057;-93
2024/02/04 06:00:33;;;;;;;6.40;1.23;;;;;;;10.13;100.00;101498.13;4994811;28;20118;-93
2024/02/04 06:02:58;;;;;;;6.82;1.40;;;;;;;10.19;100.00;101490.16;4994696;28;20116;-92
2024/02/04 06:05:23;;;;;;;6.50;1.33;;;;;;;10.23;100.00;101490.88;5011026;28;20037;-92
2024/02/04 06:07:49;;;;;;;6.82;1.88;;;;;;;10.12;100.00;101488.72;5011238;28;20022;-92
2024/02/04 06:10:14;;;;;;;4.20;1.00;;;;;;;10.21;100.00;101490.91;4994873;28;20026;-93
2024/02/04 06:12:44;;;;;;;4.10;1.00;;;;;;;10.26;100.00;101501.91;5012335;28;20025;-92
2024/02/04 06:15:13;;;;;;;6.88;1.10;;;;;;;10.23;100.00;101486.53;5011997;28;20088;-92
2024/02/04 06:17:39;;;;;;;5.13;0.82;;;;;;;10.21;100.00;101478.03;4994964;28;20449;-93
2024/02/04 06:20:05;;;;;;;2.85;0.90;;;;;;;10.20;100.00;101496.16;4993842;28;20121;-93
2024/02/04 06:22:30;;;;;;;3.58;1.00;;;;;;;10.26;100.00;101486.41;5012575;28;20618;-92
2024/02/04 06:24:56;;;;;;;4.43;1.05;;;;;;;10.33;100.00;101496.53;5012708;28;20345;-93
2024/02/04 06:27:21;;;;;;;4.45;0.77;;;;;;;10.30;100.00;101481.19;5012234;28;20487;-93
2024/02/04 06:29:46;;;;;;;4.60;0.70;;;;;;;10.26;100.00;101488.16;5012004;28;20431;-93
2024/02/04 06:32:13;;;;;;;3.63;0.90;;;;;;;10.35;100.00;101474.09;5011173;28;20495;-93
2024/02/04 06:34:38;;;;;;;4.57;0.82;;;;;;;10.35;100.00;101463.78;5009022;28;20037;-92
2024/02/04 06:37:04;;;;;;;4.85;2.25;;;;;;;10.36;100.00;101478.34;5010327;28;20537;-92
2024/02/04 06:39:29;;;;;;;4.05;0.80;;;;;;;10.35;100.00;101476.69;5011755;28;20025;-92
2024/02/04 06:41:54;;;;;;;3.05;0.63;;;;;;;10.33;100.00;101481.06;5011994;28;20048;-93
2024/02/04 06:44:20;;;;;;;2.05;0.60;;;;;;;10.33;100.00;101478.47;5012316;28;20052;-93
2024/02/04 06:46:46;;;;;;;1.58;0.52;;;;;;;10.41;100.00;101473.84;5011830;28;20022;-93
2024/02/04 06:49:17;;;;;;;4.85;0.93;;;;;;;10.36;100.00;101470.59;5010714;28;20053;-93
2024/02/04 06:51:43;;;;;;;4.70;0.77;;;;;;;10.40;100.00;101465.25;4994002;28;20058;-93
2024/02/04 06:54:09;;;;;;;2.60;0.70;;;;;;;10.42;100.00;101472.97;5011893;28;20455;-91
2024/02/04 06:56:36;;;;;;;1.80;1.15;;;;;;;10.41;100.00;101487.63;5012020;28;20072;-92
2024/02/04 06:59:02;;;;;;;3.22;0.82;;;;;;;10.43;100.00;101480.63;4994448;28;20041;-92
2024/02/04 07:01:27;;;;;;;5.70;1.05;;;;;;;10.33;100.00;101488.81;4994671;28;20062;-92
2024/02/04 07:03:52;;;;;;;2.50;1.10;;;;;;;10.39;100.00;101470.50;5010716;28;20468;-92
2024/02/04 07:06:18;;;;;;;6.50;2.15;;;;;;;10.33;100.00;101475.91;5012098;28;20030;-92
2024/02/04 07:08:43;;;;;;;4.63;1.40;;;;;;;10.36;100.00;101475.78;4994680;28;20021;-92
2024/02/04 07:11:08;;;;;;;5.30;0.88;;;;;;;10.31;100.00;101467.38;4997968;28;20026;-92
2024/02/04 07:13:34;;;;;;;6.60;1.20;;;;;;;10.32;100.00;101461.34;5015216;28;20510;-92
2024/02/04 07:15:59;;;;;;;12.57;2.58;;;;;;;10.34;100.00;101462.09;5015250;28;20084;-93
2024/02/04 07:18:24;;;;;;;6.60;2.08;;;;;;;10.27;100.00;101451.16;5014165;28;20034;-92
2024/02/04 07:20:50;;;;;;;5.97;1.17;;;;;;;10.34;100.00;101469.81;5015292;28;20029;-92
2024/02/04 07:23:15;;;;;;;5.13;1.42;;;;;;;10.31;100.00;101457.06;5014842;28;20060;-92
2024/02/04 07:25:41;;;;;;;6.63;1.58;;;;;;;10.32;100.00;101458.75;5014904;28;20034;-92
2024/02/04 07:28:06;;;;;;;6.30;1.33;;;;;;;10.35;100.00;101459.44;5014863;28;20029;-92
2024/02/04 07:30:32;;;;;;;6.25;1.50;;;;;;;10.34;100.00;101456.91;5014949;28;20557;-93
2024/02/04 07:32:57;;;;;;;6.82;1.60;;;;;;;10.31;100.00;101452.72;5013538;28;20068;-93
2024/02/04 07:35:23;;;;;;;9.63;2.45;;;;;;;10.41;100.00;101463.53;5015051;28;20026;-92
2024/02/04 07:37:48;;;;;;;9.18;1.60;;;;;;;10.31;100.00;101472.53;5014753;28;20076;-92
2024/02/04 07:40:14;;;;;;;7.00;1.60;;;;;;;10.31;100.00;101463.03;5014840;28;20029;-92
2024/02/04 07:42:39;;;;;;;6.90;1.48;;;;;;;10.26;100.00;101473.50;5014881;28;20026;-93
2024/02/04 07:45:08;;;;;;;9.40;2.35;;;;;;;10.26;100.00;101468.34;4997193;28;20026;-92
2024/02/04 07:47:34;;;;;;;7.53;1.55;;;;;;;10.28;100.00;101476.91;5013560;28;20030;-93
2024/02/04 07:50:00;;;;;;;5.88;1.30;;;;;;;10.32;100.00;101469.06;5014500;28;20084;-92
2024/02/04 07:52:25;;;;;;;4.97;1.77;;;;;;;10.26;100.00;101485.59;5014446;28;20033;-93
2024/02/04 07:54:50;;;;;;;11.38;3.85;;;;;;;10.21;100.00;101465.13;4996684;28;20033;-92
2024/02/04 07:57:16;;;;;;;9.90;1.92;;;;;;;10.27;100.00;101485.53;5014590;28;20216;-92
2024/02/04 07:59:41;;;;;;;6.82;2.00;;;;;;;10.23;100.00;101481.38;5014264;28;20061;-93
2024/02/04 08:02:06;;;;;;;10.75;2.33;;;;;;;10.23;100.00;101481.38;5012771;28;20030;-91
2024/02/04 08:04:32;;;;;;;10.43;1.88;;;;;;;10.29;100.00;101467.47;5014184;28;20030;-91
2024/02/04 08:06:57;;;;;;;10.23;1.75;;;;;;;10.28;100.00;101474.34;4996439;28;20022;-92
2024/02/04 08:09:23;;;;;;;7.15;1.60;;;;;;;10.39;100.00;101470.50;4996452;28;20356;-91
2024/02/04 08:11:48;;;;;;;9.05;1.88;;;;;;;10.41;100.00;101458.34;5014223;28;20028;-91
2024/02/04 08:14:14;;;;;;;10.10;1.33;;;;;;;10.33;100.00;101469.00;4996479;28;20099;-91
2024/02/04 08:16:40;;;;;;;13.52;2.17;;;;;;;10.34;100.00;101464.66;5013057;28;20475;-92
2024/02/04 08:19:06;;;;;;;18.42;2.17;;;;;;;10.41;100.00;101458.34;5013349;28;20033;-90
2024/02/04 08:21:32;;;;;;;10.10;2.10;;;;;;;10.45;100.00;101459.91;5011932;28;20422;-89
2024/02/04 08:23:58;;;;;;;11.43;2.25;;;;;;;10.33;100.00;101465.56;5013618;28;20389;-88
2024/02/04 08:26:23;;;;;;;9.65;2.20;;;;;;;10.33;100.00;101468.16;5013485;28;20499;-89
2024/02/04 08:28:49;;;;;;;11.00;1.95;;;;;;;10.23;100.00;101481.38;5013517;28;20061;-90
2024/02/04 08:31:14;;;;;;;9.30;1.85;;;;;;;10.33;100.00;101470.75;4995162;28;20037;-89
2024/02/04 08:33:39;;;;;;;11.82;2.00;;;;;;;10.39;100.00;101488.56;4994037;28;20386;-90
2024/02/04 08:36:06;;;;;;;5.28;1.60;;;;;;;10.35;100.00;101474.09;5009721;28;20057;-89
2024/02/04 08:38:31;;;;;;;10.52;1.70;;;;;;;10.32;100.00;101494.88;5013939;28;20034;-89
2024/02/04 08:40:57;;;;;;;10.27;2.92;;;;;;;10.33;100.00;101486.22;5013237;28;20026;-89
2024/02/04 08:43:22;;;;;;;9.63;2.17;;;;;;;10.31;100.00;101488.03;5012939;28;20467;-89
2024/02/04 08:45:48;;;;;;;7.05;1.60;;;;;;;10.26;100.00;101498.50;4994746;28;20029;-89
2024/02/04 08:48:13;;;;;;;15.85;2.85;;;;;;;10.37;100.00;101498.13;5012956;28;20033;-88
2024/02/04 08:50:39;;;;;;;11.60;2.38;;;;;;;10.25;100.00;101497.66;5012713;28;20030;-89
2024/02/04 08:53:04;;;;;;;8.63;1.95;;;;;;;10.25;100.00;101499.41;4995282;28;20030;-89
2024/02/04 08:55:29;;;;;;;13.13;1.98;;;;;;;10.32;100.00;101494.88;5013433;28;20029;-90
2024/02/04 08:57:55;;;;;;;11.45;2.60;;;;;;;10.23;100.00;101507.19;5013230;28;20468;-90
2024/02/04 09:00:21;;;;;;;11.73;1.80;;;;;;;10.29;100.00;101516.47;5012163;28;20410;-89
2024/02/04 09:02:47;;;;;;;6.22;1.65;;;;;;;10.25;100.00;101505.38;5011104;28;20076;-89
2024/02/04 09:05:12;;;;;;;6.60;1.52;;;;;;;10.37;100.00;101504.09;5012430;28;20431;-88
2024/02/04 09:07:39;;;;;;;10.65;1.67;;;;;;;10.37;100.00;101516.19;5013061;28;20026;-90
2024/02/04 09:10:04;;;;;;;8.02;1.40;;;;;;;10.35;100.00;101515.41;5013006;28;20018;-90
2024/02/04 09:12:30;;;;;;;5.18;1.25;;;;;;;10.42;100.00;101507.34;5012826;28;20072;-88
2024/02/04 09:14:55;;;;;;;3.20;1.27;;;;;;;10.20;100.00;101507.31;5013088;28;20026;-89
2024/02/04 09:17:21;;;;;;;6.35;1.48;;;;;;;10.33;100.00;101522.34;5011109;28;20073;-89
2024/02/04 09:19:46;;;;;;;7.20;1.40;;;;;;;10.47;100.00;101514.91;5010791;28;20033;-90
2024/02/04 09:22:11;;;;;;;5.82;1.67;;;;;;;10.47;100.00;101509.75;5012350;28;20026;-89
2024/02/04 09:24:37;;;;;;;6.10;1.48;;;;;;;10.35;100.00;101520.56;5012681;28;20041;-90
2024/02/04 09:27:02;;;;;;;5.75;1.45;;;;;;;10.39;100.00;101510.06;5012417;28;20030;-89
2024/02/04 09:29:28;;;;;;;7.05;1.40;;;;;;;10.43;100.00;101518.50;4989114;28;20025;-89
2024/02/04 09:31:53;;;;;;;10.02;1.75;;;;;;;10.41;100.00;101509.97;5008516;28;20160;-89
2024/02/04 09:34:19;;;;;;;6.47;1.58;;;;;;;10.49;100.00;101528.59;4993859;28;20069;-90
2024/02/04 09:36:44;;;;;;;9.25;1.90;;;;;;;10.45;100.00;101538.19;4994599;28;20026;-89
2024/02/04 09:39:10;;;;;;;13.57;1.52;;;;;;;10.48;100.00;101539.81;4994623;28;20083;-89
2024/02/04 09:41:35;;;;;;;6.30;1.88;;;;;;;10.47;100.00;101525.22;5011758;28;20100;-89
2024/02/04 09:44:03;;;;;;;17.35;2.13;;;;;;;10.44;100.00;101540.84;5010990;28;20396;-89
2024/02/04 09:46:29;;;;;;;13.07;2.00;;;;;;;10.49;100.00;101538.91;5010157;28;20082;-89
2024/02/04 09:48:55;;;;;;;9.35;2.53;;;;;;;10.53;100.00;101535.28;4993970;28;20510;-89
2024/02/04 09:51:21;;;;;;;13.23;2.05;;;;;;;10.49;100.00;101526.03;5011593;28;20021;-89
2024/02/04 09:53:52;;;;;;;9.25;2.28;;;;;;;10.53;100.00;101549.94;5011591;28;20033;-91
2024/02/04 09:56:18;;;;;;;9.20;2.35;;;;;;;10.54;100.00;101549.06;5012101;28;20026;-91
2024/02/04 09:58:44;;;;;;;7.82;2.17;;;;;;;10.48;100.00;101530.34;4993643;28;20030;-91
2024/02/04 10:01:11;;;;;;;12.88;2.53;;;;;;;10.57;100.00;101525.72;5011477;28;20112;-92
2024/02/04 10:03:37;;;;;;;11.98;2.40;;;;;;;10.52;100.00;101549.13;5011810;28;20037;-91
2024/02/04 10:06:02;;;;;;;11.38;1.92;;;;;;;10.53;100.00;101545.63;5011042;28;20104;-89
2024/02/04 10:08:28;;;;;;;10.70;2.55;;;;;;;10.64;100.00;101546.06;5007699;28;20026;-90
2024/02/04 10:10:57;;;;;;;10.93;2.40;;;;;;;10.62;100.00;101542.69;4993347;28;20057;-91
2024/02/04 10:13:24;;;;;;;8.52;2.72;;;;;;;10.62;100.00;101542.69;5010730;28;20061;-90
2024/02/04 10:15:49;;;;;;;10.35;3.47;;;;;;;10.75;100.00;101553.34;4987449;28;20022;-91
2024/02/04 10:18:17;;;;;;;11.77;1.70;;;;;;;10.79;100.00;101557.50;5010640;28;20446;-91
2024/02/04 10:20:42;;;;;;;9.88;2.67;;;;;;;10.81;100.00;101545.38;5010071;28;20103;-89
2024/02/04 10:23:08;;;;;;;4.35;1.77;;;;;;;10.80;100.00;101542.84;5010929;28;20060;-94
2024/02/04 10:25:33;;;;;;;11.25;1.77;;;;;;;10.88;100.00;101535.63;4994606;28;20033;-93
2024/02/04 10:27:59;;;;;;;5.72;1.50;;;;;;;10.85;100.00;101538.31;5011427;28;20398;-92
2024/02/04 10:30:24;;;;;;;7.40;1.25;;;;;;;10.87;100.00;101554.59;5011706;28;20392;-93
2024/02/04 10:32:54;;;;;;;3.53;1.25;;;;;;;11.01;100.00;101548.88;4994118;28;20030;-93
2024/02/04 10:35:23;;;;;;;5.32;1.33;;;;;;;11.05;100.00;101538.34;4983621;28;20497;-92
2024/02/04 10:37:52;;;;;;;10.13;1.73;;;;;;;11.08;100.00;101545.97;4993584;28;20036;-94
2024/02/04 10:40:18;;;;;;;5.97;1.33;;;;;;;10.97;100.00;101549.91;4991527;28;20022;-93
2024/02/04 10:42:44;;;;;;;6.93;2.08;;;;;;;10.98;100.00;101547.28;5012194;28;20106;-93
2024/02/04 10:45:11;;;;;;;4.53;1.17;;;;;;;11.10;100.00;101546.75;5013427;28;20056;-91
2024/02/04 10:47:40;;;;;;;7.07;1.42;;;;;;;11.23;100.00;101533.31;5012849;28;20026;-92
2024/02/04 10:50:06;;;;;;;6.07;1.23;;;;;;;11.21;100.00;101546.28;5012265;28;20484;-92
2024/02/04 10:52:39;;;;;;;5.35;1.08;;;;;;;11.17;100.00;101541.31;5015551;28;20033;-91
2024/02/04 10:55:11;;;;;;;14.00;1.85;;;;;;;11.25;100.00;101549.59;5015303;28;20034;-92
2024/02/04 10:57:38;;;;;;;6.63;1.15;;;;;;;11.23;100.00;101547.06;5015245;28;20100;-92
2024/02/04 11:00:08;;;;;;;4.28;1.25;;;;;;;11.26;100.00;101538.34;4998657;28;20086;-92
2024/02/04 11:02:34;;;;;;;4.57;1.00;;;;;;;11.10;100.00;101531.25;5013846;28;20029;-92
2024/02/04 11:05:02;;;;;;;4.85;1.02;;;;;;;11.29;100.00;101546.81;5013214;28;20026;-91
2024/02/04 11:07:32;;;;;;;7.18;1.25;;;;;;;11.26;100.00;101551.25;5015371;28;20076;-92
2024/02/04 11:09:57;;;;;;;4.78;0.95;;;;;;;11.31;100.00;101550.19;4997413;28;20519;-92
2024/02/04 11:12:24;;;;;;;5.05;1.17;;;;;;;11.24;100.00;101548.75;5014697;28;20120;-92